createdAt,value
2023-06-17T00:02:03.141Z,14.68
2023-06-17T00:07:08.153Z,14.52
2023-06-17T00:12:13.655Z,14.40
2023-06-17T00:17:16.763Z,14.37
2023-06-17T00:22:21.159Z,14.48
2023-06-17T00:27:24.662Z,14.60
2023-06-17T00:32:28.370Z,14.70
2023-06-17T00:37:33.450Z,14.60
2023-06-17T00:42:37.805Z,14.43
2023-06-17T00:47:41.765Z,14.22
2023-06-17T00:52:47.919Z,14.18
2023-06-17T00:57:52.496Z,14.21
2023-06-17T01:02:58.464Z,14.13
2023-06-17T01:08:15.393Z,13.90
2023-06-17T01:13:19.984Z,13.76
2023-06-17T01:18:23.853Z,13.69
2023-06-17T01:23:33.488Z,13.59
2023-06-17T01:28:39.694Z,13.55
2023-06-17T01:33:44.960Z,13.56
2023-06-17T01:38:52.305Z,13.44
2023-06-17T01:43:59.448Z,13.36
2023-06-17T01:49:02.542Z,13.30
2023-06-17T01:54:06.436Z,13.36
2023-06-17T01:59:11.237Z,13.50
2023-06-17T02:04:14.789Z,13.61
2023-06-17T02:09:18.111Z,13.67
2023-06-17T02:14:23.038Z,13.69
2023-06-17T02:19:30.305Z,13.70
2023-06-17T02:24:34.135Z,13.71
2023-06-17T02:29:38.995Z,13.78
2023-06-17T02:34:45.162Z,13.75
2023-06-17T02:39:48.743Z,13.63
2023-06-17T02:44:53.200Z,13.42
2023-06-17T02:49:56.843Z,13.28
2023-06-17T02:55:00.587Z,13.33
2023-06-17T03:00:07.055Z,13.40
2023-06-17T03:05:10.597Z,13.34
2023-06-17T03:10:14.024Z,13.29
2023-06-17T03:15:19.195Z,13.20
2023-06-17T03:20:29.876Z,13.14
2023-06-17T03:25:33.461Z,13.08
2023-06-17T03:30:41.007Z,13.01
2023-06-17T03:35:44.660Z,12.91
2023-06-17T03:40:48.700Z,12.88
2023-06-17T03:45:55.207Z,12.81
2023-06-17T03:50:59.218Z,12.86
2023-06-17T03:56:02.652Z,12.85
2023-06-17T04:01:08.763Z,12.86
2023-06-17T04:06:13.175Z,12.91
2023-06-17T04:11:17.761Z,12.98
2023-06-17T04:16:23.195Z,13.15
2023-06-17T04:21:28.220Z,13.25
2023-06-17T04:26:32.078Z,13.36
2023-06-17T04:31:41.836Z,13.41
2023-06-17T04:36:45.668Z,13.51
2023-06-17T04:41:50.056Z,13.65
2023-06-17T04:46:55.243Z,13.74
2023-06-17T04:51:59.024Z,13.80
2023-06-17T04:57:02.629Z,13.83
2023-06-17T05:02:08.108Z,13.95
2023-06-17T05:07:11.782Z,14.12
2023-06-17T05:12:15.151Z,14.29
2023-06-17T05:17:20.622Z,14.40
2023-06-17T05:22:24.394Z,14.51
2023-06-17T05:27:28.007Z,14.70
2023-06-17T05:32:33.008Z,14.88
2023-06-17T05:37:36.640Z,15.07
2023-06-17T05:42:42.325Z,15.27
2023-06-17T05:47:47.683Z,15.48
2023-06-17T05:52:51.232Z,15.73
2023-06-17T05:57:55.426Z,16.01
2023-06-17T06:03:00.038Z,16.22
2023-06-17T06:08:03.447Z,16.53
2023-06-17T06:13:06.830Z,16.82
2023-06-17T06:18:13.301Z,17.10
2023-06-17T06:23:16.775Z,17.74
2023-06-17T06:28:20.361Z,19.17
2023-06-17T06:33:25.138Z,19.87
2023-06-17T06:38:29.296Z,20.84
2023-06-17T06:43:33.425Z,21.51
2023-06-17T06:48:41.009Z,21.44
2023-06-17T06:53:44.435Z,21.55
2023-06-17T06:58:48.584Z,22.72
2023-06-17T07:03:53.400Z,22.52
2023-06-17T07:08:56.738Z,23.13
2023-06-17T07:14:00.154Z,23.74
2023-06-17T07:19:05.510Z,24.06
2023-06-17T07:24:08.935Z,24.72
2023-06-17T07:29:12.721Z,24.43
2023-06-17T07:34:18.964Z,25.38
2023-06-17T07:39:22.174Z,24.82
2023-06-17T07:44:25.501Z,24.63
2023-06-17T07:49:30.958Z,25.81
2023-06-17T07:54:36.798Z,25.73
2023-06-17T07:59:41.766Z,26.32
2023-06-17T08:04:46.359Z,26.73
2023-06-17T08:09:50.099Z,26.87
2023-06-17T08:14:53.914Z,27.58
2023-06-17T08:19:59.070Z,27.48
2023-06-17T08:25:02.280Z,27.75
2023-06-17T08:30:06.846Z,27.57
2023-06-17T08:35:11.491Z,27.36
2023-06-17T08:40:15.611Z,27.82
2023-06-17T08:45:19.339Z,28.35
2023-06-17T08:50:24.666Z,28.56
2023-06-17T08:55:27.904Z,29.22
2023-06-17T09:00:31.119Z,29.02
2023-06-17T09:05:36.116Z,30.58
2023-06-17T09:10:46.151Z,31.28
2023-06-17T09:15:49.413Z,29.68
2023-06-17T09:20:56.655Z,30.49
2023-06-17T09:26:03.477Z,30.86
2023-06-17T09:31:06.866Z,28.42
2023-06-17T09:36:12.000Z,28.81
2023-06-17T09:41:16.121Z,30.21
2023-06-17T09:46:26.420Z,31.10
2023-06-17T09:51:37.720Z,31.54
2023-06-17T09:56:41.468Z,32.29
2023-06-17T10:01:45.693Z,32.00
2023-06-17T10:06:52.551Z,31.99
2023-06-17T10:11:57.686Z,31.82
2023-06-17T10:17:02.569Z,32.22
2023-06-17T10:22:11.971Z,33.10
2023-06-17T10:27:15.392Z,33.15
2023-06-17T10:32:20.821Z,32.55
2023-06-17T10:37:30.022Z,32.45
2023-06-17T10:42:33.299Z,32.68
2023-06-17T10:47:36.614Z,32.90
2023-06-17T10:52:41.548Z,31.76
2023-06-17T10:57:44.745Z,32.31
2023-06-17T11:02:48.741Z,32.68
2023-06-17T11:07:53.279Z,32.31
2023-06-17T11:12:56.688Z,33.96
2023-06-17T11:18:03.659Z,32.85
2023-06-17T11:23:08.481Z,33.99
2023-06-17T11:28:12.741Z,32.55
2023-06-17T11:33:16.176Z,31.83
2023-06-17T11:38:22.353Z,30.06
2023-06-17T11:43:27.850Z,30.14
2023-06-17T11:48:31.583Z,31.76
2023-06-17T11:53:38.566Z,32.51
2023-06-17T11:58:43.149Z,31.97
2023-06-17T12:03:46.935Z,32.24
2023-06-17T12:08:59.498Z,32.95
2023-06-17T12:14:07.747Z,32.49
2023-06-17T12:19:17.214Z,32.06
2023-06-17T12:24:22.109Z,32.82
2023-06-17T12:29:26.765Z,33.38
2023-06-17T12:34:30.336Z,32.91
2023-06-17T12:39:37.994Z,32.32
2023-06-17T12:44:41.950Z,32.99
2023-06-17T12:49:45.270Z,32.78
2023-06-17T12:54:59.111Z,31.90
2023-06-17T13:00:05.207Z,30.89
2023-06-17T13:05:09.781Z,32.14
2023-06-17T13:10:14.485Z,32.42
2023-06-17T13:15:17.882Z,31.58
2023-06-17T13:20:22.288Z,32.44
2023-06-17T13:25:29.781Z,33.38
2023-06-17T13:30:33.111Z,33.28
2023-06-17T13:35:37.346Z,32.15
2023-06-17T13:40:42.683Z,32.65
2023-06-17T13:45:46.609Z,33.42
2023-06-17T13:50:49.889Z,33.71
2023-06-17T13:55:55.069Z,33.06
2023-06-17T14:00:58.485Z,32.94
2023-06-17T14:06:02.185Z,32.79
2023-06-17T14:11:07.548Z,32.93
2023-06-17T14:16:11.160Z,33.25
2023-06-17T14:21:28.947Z,32.99
2023-06-17T14:26:35.259Z,31.54
2023-06-17T14:31:39.185Z,32.22
2023-06-17T14:36:42.798Z,31.91
2023-06-17T14:41:47.817Z,30.98
2023-06-17T14:46:51.166Z,30.96
2023-06-17T14:51:55.039Z,30.20
2023-06-17T14:56:59.591Z,30.29
2023-06-17T15:02:03.322Z,29.66
2023-06-17T15:07:07.399Z,29.77
2023-06-17T15:12:14.145Z,29.55
2023-06-17T15:30:29.873Z,29.31
2023-06-17T15:35:33.073Z,29.52
2023-06-17T15:40:36.181Z,29.29
2023-06-17T15:45:40.705Z,29.54
2023-06-17T15:50:43.756Z,29.59
2023-06-17T15:55:48.467Z,29.41
2023-06-17T16:00:52.934Z,29.34
2023-06-17T16:05:56.145Z,29.89
2023-06-17T16:10:59.270Z,30.95
2023-06-17T16:16:04.035Z,31.27
2023-06-17T16:21:07.208Z,31.07
2023-06-17T16:26:11.232Z,30.85
2023-06-17T16:31:15.899Z,30.74
2023-06-17T16:36:19.146Z,30.41
2023-06-17T16:41:23.236Z,31.06
2023-06-17T16:46:27.858Z,30.98
2023-06-17T16:51:32.235Z,31.17
2023-06-17T16:56:35.422Z,30.80
2023-06-17T17:01:41.735Z,30.55
2023-06-17T17:06:45.033Z,30.16
2023-06-17T17:11:48.092Z,30.44
2023-06-17T17:16:52.678Z,30.99
2023-06-17T17:21:55.781Z,30.24
2023-06-17T17:26:59.350Z,29.27
2023-06-17T17:32:04.490Z,28.86
2023-06-17T17:37:07.601Z,28.95
2023-06-17T17:42:10.733Z,28.81
2023-06-17T17:47:15.198Z,27.95
2023-06-17T17:52:18.296Z,27.32
2023-06-17T17:57:23.162Z,26.63
2023-06-17T18:02:27.629Z,26.23
2023-06-17T18:07:30.928Z,25.70
2023-06-17T18:12:34.246Z,25.08
2023-06-17T18:17:39.022Z,24.71
2023-06-17T18:22:42.084Z,24.18
2023-06-17T18:27:45.142Z,23.71
2023-06-17T18:32:50.082Z,23.50
2023-06-17T18:37:53.233Z,23.22
2023-06-17T18:42:56.565Z,22.91
2023-06-17T18:48:01.104Z,22.82
2023-06-17T18:53:04.414Z,22.62
2023-06-17T18:58:07.865Z,22.38
2023-06-17T19:03:12.436Z,22.14
2023-06-17T19:08:15.860Z,21.96
2023-06-17T19:13:18.904Z,21.76
2023-06-17T19:18:25.318Z,21.55
2023-06-17T19:23:28.545Z,21.36
2023-06-17T19:28:31.966Z,21.17
2023-06-17T19:33:36.540Z,21.01
2023-06-17T19:38:39.616Z,20.87
2023-06-17T19:43:42.681Z,20.73
2023-06-17T19:48:47.830Z,20.62
2023-06-17T19:53:51.602Z,20.49
2023-06-17T19:58:54.688Z,20.33
2023-06-17T20:03:59.454Z,20.29
2023-06-17T20:09:02.908Z,20.16
2023-06-17T20:14:06.208Z,20.11
2023-06-17T20:19:10.601Z,20.05
2023-06-17T20:24:13.688Z,19.95
2023-06-17T20:29:17.205Z,19.92
2023-06-17T20:34:23.454Z,19.82
2023-06-17T20:39:27.193Z,19.74
2023-06-17T20:44:31.175Z,19.70
2023-06-17T20:49:36.161Z,19.59
2023-06-17T20:54:39.594Z,19.47
2023-06-17T20:59:42.652Z,19.30
2023-06-17T21:04:47.520Z,19.30
2023-06-17T21:09:50.643Z,19.45
2023-06-17T21:14:53.699Z,19.48
2023-06-17T21:19:58.106Z,19.41
2023-06-17T21:25:01.205Z,19.27
2023-06-17T21:30:04.538Z,19.20
2023-06-17T21:35:09.312Z,19.16
2023-06-17T21:40:13.806Z,19.09
2023-06-17T21:45:17.009Z,19.05
2023-06-17T21:50:21.997Z,18.93
2023-06-17T21:55:25.304Z,18.81
2023-06-17T22:00:29.122Z,18.71
2023-06-17T22:05:33.811Z,18.62
2023-06-17T22:10:36.857Z,18.57
2023-06-17T22:15:39.942Z,18.48
2023-06-17T22:20:44.629Z,18.43
2023-06-17T22:25:47.684Z,18.35
2023-06-17T22:30:51.316Z,18.26
2023-06-17T22:35:56.299Z,18.19
2023-06-17T22:40:59.434Z,18.16
2023-06-17T22:46:04.160Z,18.09
2023-06-17T22:51:08.904Z,18.08
2023-06-17T22:56:12.337Z,17.98
2023-06-17T23:01:15.719Z,17.88
2023-06-17T23:06:20.474Z,17.79
2023-06-17T23:11:23.537Z,17.64
2023-06-17T23:16:26.979Z,17.37
2023-06-17T23:21:34.278Z,17.25
2023-06-17T23:26:37.892Z,17.20
2023-06-17T23:31:41.022Z,17.14
2023-06-17T23:36:46.326Z,17.06
2023-06-17T23:41:49.440Z,16.83
2023-06-17T23:46:52.499Z,16.71
2023-06-17T23:51:56.901Z,16.66
2023-06-17T23:56:59.941Z,16.53
